KBED

Laurence G Hanscom Field Airport

Bedford, Massachusetts, USA
METAR KBED 200656Z AUTO 22011KT 10SM OVC008 11/09 A3022 RMK AO2 SLP248 T01060094
Observed Flight Rules
Feb-20 @ 06:56 UTC (29 minutes ago) Instrument Flight Rules
Wind Visibility Clouds
220° at 11 knots 10 miles
  • Overcast at 800' AGL
Temperatures Readings
Current 11°C / 52°F
Dewpoint 9°C / 48°F
Humidity 88%
Altimeter 30.22" Hg
Pressure 1024.8 hPa
Elevation 50
METAR KBED 200656Z AUTO 22011KT 10SM OVC008 11/09 A3022 RMK AO2 SLP248 T01060094
Observed Flight Rules
Feb-20 @ 06:56 UTC
(29 minutes ago)
IFR
Wind Visibility
220° at 11 knots 10 miles
Clouds
  • Overcast at 800' AGL
Temperature Dewpoint
11°C / 52°F 9°C / 48°F
Humidity Altimeter Pressure
88% 30.22" Hg 1024.8 hPa